アルハンゲリスク の空港の天気 - METARとTAF

Arhangel'Sk ( ULAA / ARH ) - ロシア アルハンゲリスク
飛行場実況気象(Metar)
観測時間05/28 02:30 MSK (05/27 23:30 UTC)
風向・風速不定 1m/s
視程10km以上
天気現象
なし
気温6℃
湿度100%
気圧1017hPa
METARULAA 272330Z VRB01MPS CAVOK 06/06 Q1017 R26/CLRD68 NOSIG RMK QFE761/1015
過去の天気等 Google飛行場航空写真 Wunderground天気予報

過去48時間のMETAR

飛行場予報(TAF)
発表時間: 5/28 02:00 MSK (5/27 23:00 UTC)
予報対象時間: 28日3時 MSK ~ 29日3時 MSK
風向・風速西 3m/s
視程6000m
全天の4割程度の雲 雲底高度 610m
28日8時 MSK から
風向・風速南 3m/s
視程10km以上
全天の8割程度の雲 雲底高度 520m
28日12時 MSK ~ 28日18時 MSK に一時的に
風向・風速南西 3m/s 瞬間風速 10m/s
視程6000m
天気現象弱いしゅう雨
全天の8割程度の積乱雲 雲底高度 490m
28日18時 MSK ~ 28日21時 MSK に一時的に
風向・風速北北西 3m/s 瞬間風速 9m/s
視程6000m
天気現象弱いしゅう雨
全天の8割程度の積乱雲 雲底高度 490m
28日21時 MSK ~ 28日22時 MSK に徐々に
風向・風速北北西 3m/s
TAF ULAA 272300Z 2800/2824 26003MPS 6000 SCT020
FM280500 18003MPS 9999 BKN017
TEMPO 2809/2815 22003G10MPS 6000 -SHRA BKN016CB
TEMPO 2815/2818 33003G09MPS 6000 -SHRA BKN016CB
BECMG 2818/2819 33003MPS